createdAt,value
2022-10-26T00:13:15.276Z,0.85
2022-10-26T00:23:31.448Z,0.80
2022-10-26T00:33:56.226Z,0.90
2022-10-26T00:45:08.197Z,1.10
2022-10-26T00:55:34.623Z,1.20
2022-10-26T01:05:55.564Z,0.80
2022-10-26T01:27:36.588Z,0.85
2022-10-26T01:38:23.969Z,1.00
2022-10-26T01:48:32.601Z,0.90
2022-10-26T02:12:31.164Z,1.00
2022-10-26T02:37:04.286Z,1.10
2022-10-26T02:47:28.154Z,1.20
2022-10-26T02:58:21.672Z,1.15
2022-10-26T03:19:35.559Z,1.60
2022-10-26T03:41:07.771Z,1.80
2022-10-26T03:51:17.840Z,1.40
2022-10-26T04:26:04.427Z,2.50
2022-10-26T04:37:10.271Z,1.80
2022-10-26T04:59:57.357Z,2.10
2022-10-26T05:10:31.195Z,1.60
2022-10-26T05:20:46.427Z,1.10
2022-10-26T05:31:13.945Z,1.10
2022-10-26T05:41:22.864Z,0.80
2022-10-26T06:03:51.204Z,0.80
2022-10-26T06:14:08.284Z,0.70
2022-10-26T06:24:30.283Z,0.70
2022-10-26T06:34:53.654Z,0.55
2022-10-26T06:45:25.441Z,0.70
2022-10-26T06:55:40.927Z,0.50
2022-10-26T07:06:05.373Z,0.70
2022-10-26T07:28:07.599Z,0.30
2022-10-26T07:38:25.146Z,0.40
2022-10-26T07:48:57.698Z,0.40
2022-10-26T07:59:10.445Z,0.40
2022-10-26T08:10:07.965Z,0.47
2022-10-26T08:20:45.555Z,0.38
2022-10-26T08:30:58.788Z,0.50
2022-10-26T08:41:15.861Z,0.40
2022-10-26T08:51:35.394Z,0.35
2022-10-26T09:01:50.334Z,0.30
2022-10-26T09:12:12.119Z,0.40
2022-10-26T09:22:25.319Z,0.20
2022-10-26T09:33:10.755Z,0.30
2022-10-26T09:43:21.647Z,0.20
2022-10-26T10:06:34.096Z,0.20
2022-10-26T10:16:44.036Z,0.43
2022-10-26T10:27:07.361Z,0.10
2022-10-26T10:37:38.275Z,0.38
2022-10-26T10:48:05.338Z,0.20
2022-10-26T10:58:26.329Z,0.40
2022-10-26T11:08:48.014Z,0.25
2022-10-26T11:19:43.278Z,0.20
2022-10-26T11:30:13.007Z,0.10
2022-10-26T11:40:40.099Z,0.30
2022-10-26T11:51:38.345Z,0.25
2022-10-26T12:01:59.330Z,0.25
2022-10-26T12:12:19.006Z,0.30
2022-10-26T12:46:52.373Z,0.22
2022-10-26T12:57:47.167Z,0.28
2022-10-26T13:19:54.459Z,0.30
2022-10-26T13:30:26.694Z,0.40
2022-10-26T13:40:42.718Z,0.35
2022-10-26T14:04:11.712Z,0.40
2022-10-26T14:25:35.918Z,0.60
2022-10-26T14:35:53.265Z,0.60
2022-10-26T14:46:59.273Z,0.50
2022-10-26T14:59:13.485Z,0.50
2022-10-26T15:09:30.605Z,0.75
2022-10-26T15:32:24.859Z,1.10
2022-10-26T15:42:35.494Z,0.68
2022-10-26T15:52:50.026Z,0.70
2022-10-26T16:03:07.002Z,0.85
2022-10-26T16:13:17.786Z,0.95
2022-10-26T16:23:24.769Z,0.80
2022-10-26T16:33:33.272Z,0.93
2022-10-26T16:43:48.457Z,0.70
2022-10-26T16:54:38.327Z,0.80
2022-10-26T17:05:16.392Z,0.50
2022-10-26T17:15:29.580Z,0.60
2022-10-26T17:25:40.648Z,0.50
2022-10-26T17:35:53.060Z,0.68
2022-10-26T17:46:05.137Z,0.40
2022-10-26T17:56:22.933Z,0.40
2022-10-26T18:06:35.482Z,0.32
2022-10-26T18:16:53.780Z,0.30
2022-10-26T18:27:03.674Z,0.40
2022-10-26T18:37:12.610Z,0.20
2022-10-26T18:47:19.806Z,0.30
2022-10-26T18:57:36.575Z,0.50
2022-10-26T19:07:44.222Z,0.60
2022-10-26T19:17:53.477Z,0.35
2022-10-26T19:28:00.292Z,0.50
2022-10-26T19:38:10.580Z,0.70
2022-10-26T19:48:21.372Z,0.65
2022-10-26T19:58:31.289Z,0.40
2022-10-26T20:08:40.904Z,0.50
2022-10-26T20:18:49.520Z,0.57
2022-10-26T20:28:56.967Z,0.57
2022-10-26T20:39:09.174Z,0.45
2022-10-26T20:49:16.745Z,0.45
2022-10-26T21:09:49.816Z,0.50
2022-10-26T21:19:58.320Z,0.80
2022-10-26T21:30:05.572Z,0.80
2022-10-26T21:40:16.095Z,0.73
2022-10-26T21:50:23.074Z,0.80
2022-10-26T22:00:39.349Z,0.80
2022-10-26T22:10:50.961Z,0.70
2022-10-26T22:21:04.457Z,0.88
2022-10-26T22:31:13.681Z,0.88
2022-10-26T22:41:26.158Z,0.75
2022-10-26T22:51:39.813Z,0.85
2022-10-26T23:02:10.108Z,0.93
2022-10-26T23:12:20.599Z,0.80
2022-10-26T23:22:29.812Z,0.90
2022-10-26T23:32:39.624Z,0.70
2022-10-26T23:42:48.452Z,0.90
2022-10-26T23:52:56.464Z,0.90
